Portada
METAR-TAF:

METAR-TAF

Aeroports :

Kwajalein, Illes Marshall

latitud: 08-43N, longitud: 167-44E, altitud: 3 m

Observació

L'informe es va fer fa 25 minuts, a les 11:20 UTC
Vent 11 kt del Est/Nord-Est
Temperatura 27°C
Humitat 79%
Pressió 1012 hPa
Visibilitat: 16.1 km
Núvols disperses a una alçada de 2500 ft
Núvols disperses a una alçada de 2900 ft
Núvols disperses a una alçada de 3600 ft

METAR: PKWA 251120Z AUTO 07011KT 10SM SCT025 SCT029 SCT036 27/23 A2987 RMK AO2 T02700228

Hora: 23:45 (11:45 UTC)

Pronòstic

L'informe es va fer fa 6 hores i 25 minuts, a les 05:20 UTC
Pronòstic vàlid del 25 a les 06 UTC al 26 a les 06 UTC
Vent 15 kt del Est/Nord-Est
Visibilitat: 10 km
Escasses núvols a una alçada de 2500 ft
A partir de les 25 a les 1500 UTC
Vent 15 kt del Est/Nord-Est
Visibilitat: 10 km
Núvols disperses a una alçada de 2000 ft
xàfecs en les proximitats

TAF: PKWA 250520Z 2506/2606 07015KT P6SM FEW025 FM251500 06015KT P6SM VCSH SCT020

Observacions i pronòstics meteorològics de més de 4000 aeroports (METAR i TAF).

Les estacions disponibles són els punts grocs i vermells al mapa.

Posi el ratolí al punt desitjat per veure el nom de l'estació.

Feu clic per veure les observacions i els pronòstics meteorològics.

Per canviar el mapa: feu clic els botons verds amb una creu de color negre per apropar; al botó verd amb un guió per allunyar la imatge; o en les fletxes verdes per a mapes adjacents.


METAR-TAF: